Terminal Aerodrome Forecast
Issued by NWS Binghamton, NY

Current Version | Previous Version | Text Only | Print | Product List | Glossary On
Versions: 1 2 3 4 5 6 7 8 9 10 11 12 13 14 15 16 17 18 19 20 21 22 23 24 25 26 27 28 29 30 31 32 33 34 35 36 37 38 39 40 41
000
FTUS41 KBGM 210831 AAU
TAFSYR
TAF AMD
KSYR 210831Z 2109/2206 13008KT P6SM FEW005 OVC040 WS020/20040KT
      TEMPO 2112/2115 -SHRA
     FM211500 19011G20KT P6SM OVC040
     FM211800 22010G17KT P6SM -SHRA OVC030
     FM212300 27007KT P6SM BKN050=

USA.gov is the U.S. government's official web portal to all federal, state and local government web resources and services.